Tiempo atmosférico en la estación meteorológica de Pollença, Illes Balears (45 m.)



Fecha
DESCASC
Temp. máxima en grados centígrados (hora)
DESCASC
Temp. mínima en grados centígrados (hora)
DESCASC
Temp. media en grados centígrados
DESCASC
Racha de viento máxima en m/sg (hora)
DESCASC
Velocidad máxima media en intervalos de 10 minutos(hora)
DESCASC
Precipitaciones diarias en mm
DESCASC
Precipitaciones de 00:00 a 06:00 en mm
DESCASC
Precipitaciones de 06:00 a 12:00 en mm
DESCASC
Precipitaciones de 12:00 a 18:00 en mm
DESCASC
Precipitaciones de 18:00 a 24:00 en mm
DESCASC
16-06-2019 26 (17:30) 14.9 (06:20) 20.4 8.33 (12:30) 4.44 (12:30) 0 0 0 0 0
15-06-2019 27.8 (11:00) 14.2 (05:20) 21 8.61 (14:40) 4.44 (14:10) 0 0 0 0 0
14-06-2019 28.4 (18:20) 18.5 (01:10) 23.4 14.44 (13:40) 7.5 (14:00) 0 0 0 0 0
13-06-2019 24.2 (12:50) 12.4 (00:00) 18.3 7.22 (10:10) 3.89 (11:20) 0 0 0 0 0
12-06-2019 22.3 (15:50) 15.2 (00:00) 18.7 8.33 (16:10) 3.61 (16:10) 0.2 0.2 0 0 0
11-06-2019 26.2 (15:40) 15.1 (00:00) 20.7 10.83 (14:50) 5 (19:50) 0.6 0 0 0 0.6
10-06-2019 26.8 (14:50) 17.7 (00:00) 22.3 7.5 (16:40) 3.89 (16:20) 0 0 0 0 0
09-06-2019 29.5 (14:50) 16.2 (00:00) 22.9 6.67 (15:40) 3.33 (15:20) 0 0 0 0 0
08-06-2019 23.9 (15:50) 16.7 (00:00) 20.3 8.89 (12:10) 3.89 (12:30) 0 0 0 0 0
07-06-2019 29.2 (15:30) 15.5 (00:00) 22.4 7.78 (15:50) 3.33 (13:00) 0 0 0 0 0
06-06-2019 27.3 (17:00) 15.7 (00:00) 21.5 10.28 (22:10) 4.44 (12:50) 0 0 0 0 0
05-06-2019 30.9 (14:40) 13.5 (00:00) 22.2 15.83 (15:40) 7.5 (15:50) 0 0 0 0 0
04-06-2019 33.1 (16:00) 14.4 (00:00) 23.7 10.83 (12:30) 4.44 (14:10) 0 0 0 0 0
03-06-2019 32.2 (16:40) 12.8 (00:00) 22.5 8.61 (17:00) 5.28 (17:20) 0 0 0 0 0
02-06-2019 28.2 (15:40) 12.5 (00:00) 20.4 6.39 (14:00) 2.78 (13:00) 0 0 0 0 0
01-06-2019 26.7 (12:40) 12.7 (00:00) 19.7 5.83 (16:50) 3.06 (15:30) 0 0 0 0 0
31-05-2019 26.3 (14:30) 13.9 (00:00) 20.1 6.67 (15:30) 4.17 (15:50) 0 0 0 0 0
30-05-2019 25.4 (16:50) 12.2 (00:00) 18.8 8.33 (12:40) 4.72 (10:30) 0 0 0 0 0
29-05-2019 23.1 (14:40) 13.7 (00:00) 18.4 6.39 (16:30) 2.78 (16:00) 0 0 0 0 0
28-05-2019 -- (--) -- (--) -- -- (--) -- (--) -- 0 0 -- 0
27-05-2019 25.8 (13:10) 15.8 (00:00) 20.8 10.83 (03:40) 5.56 (03:30) 0 0 0 0 0
26-05-2019 24.1 (16:20) 16.3 (00:00) 20.2 11.39 (05:40) 5.28 (05:40) 0 0 0 0 0
25-05-2019 18.8 (18:00) 14.2 (00:00) 16.5 6.11 (17:30) 2.22 (17:30) 33.2 10.8 21 1.4 0
24-05-2019 20.5 (11:10) 13.4 (00:00) 16.9 5 (15:20) 3.06 (15:40) 3.2 0 0 2 1.2
23-05-2019 27.6 (16:30) 10.3 (00:00) 19 8.61 (17:30) 5 (17:30) 0 0 0 0 0
22-05-2019 25.5 (13:50) 11.1 (00:00) 18.3 6.11 (13:50) 3.33 (14:40) 0 0 0 0 0

Gráficas

Temp. máximas Temp. mínimas Temp. medias Precipitaciones Rachas de viento máximas Velocidades máximas media en intervalos de 10 minutos

Datos horarios

Fecha y hora oficial Temperatura (ºC) Velocidad del viento (km/h) Dirección del viento Racha (km/h) Dirección de racha Precipitación (mm) Presión (hPa) Tendencia (hPa) Humedad (%)
2019-06-20 23:00:00 21.4 0 Calma 4 Nordeste 0 -- -- 83
2019-06-20 22:00:00 22.2 2 Nordeste 11 Norte 0 -- -- 78
2019-06-20 21:00:00 23.6 4 Norte 12 Norte 0 -- -- 71
2019-06-20 20:00:00 24.8 4 Sudeste 12 Este 0 -- -- 66
2019-06-20 19:00:00 25.8 8 Sudeste 17 Este 0 -- -- 64
2019-06-20 18:00:00 26.9 8 Este 18 Sudeste 0 -- -- 58
2019-06-20 17:00:00 29 9 Este 21 Este 0 -- -- 46
2019-06-20 16:00:00 29.5 8 Nordeste 18 Nordeste 0 -- -- 50
2019-06-20 15:00:00 27.7 10 Nordeste 20 Este 0 -- -- 59
2019-06-20 14:00:00 26.3 11 Nordeste 22 Este 0 -- -- 63
2019-06-20 13:00:00 27.2 9 Nordeste 22 Nordeste 0 -- -- 57
2019-06-20 12:00:00 27.1 8 Este 17 Este 0 -- -- 53
2019-06-20 11:00:00 25.6 8 Este 22 Norte 0 -- -- 62
2019-06-20 10:00:00 25.6 9 Nordeste 18 Nordeste 0 -- -- 61
2019-06-20 09:00:00 24.6 8 Nordeste 15 Norte 0 -- -- 63
2019-06-20 08:00:00 23.2 3 Este 7 Nordeste 0 -- -- 74
2019-06-20 07:00:00 18.9 0 Calma 4 Nordeste 0 -- -- 90
2019-06-20 06:00:00 19.7 0 Calma 6 Este 0 -- -- 87
2019-06-20 05:00:00 20.7 3 Nordeste 5 Oeste 0 -- -- 86
2019-06-20 04:00:00 20.3 0 Calma 6 Nordeste 0 -- -- 85
2019-06-20 03:00:00 19.7 2 Nordeste 4 Nordeste 0 -- -- 89
2019-06-20 02:00:00 18.2 0 Calma 4 Norte 0 -- -- 89
2019-06-20 01:00:00 18.5 0 Calma 4 Nordeste 0 -- -- 88
2019-06-20 00:00:00 19.1 0 Calma 3 Norte 0 -- -- 89
2019-06-19 23:00:00 20.5 2 Norte 4 Sudeste 0 -- -- 87
2019-06-19 22:00:00 21.4 0 Calma 5 Norte 0 -- -- 80
2019-06-19 21:00:00 22.3 5 Nordeste 13 Nordeste 0 -- -- 78
2019-06-19 20:00:00 24.7 8 Norte 18 Nordeste 0 -- -- 63
2019-06-19 19:00:00 26.5 10 Norte 17 Norte 0 -- -- 57
2019-06-19 18:00:00 27.4 11 Norte 20 Norte 0 -- -- 53
2019-06-19 17:00:00 28.5 12 Norte 24 Norte 0 -- -- 50
2019-06-19 16:00:00 29.1 13 Norte 23 Norte 0 -- -- 46
2019-06-19 15:00:00 30.4 12 Nordeste -- -- -- -- -- 42
2019-06-19 14:00:00 30.3 11 Norte 22 Sudeste 0 -- -- 39
2019-06-19 13:00:00 32.6 10 Sudoeste -- -- -- -- -- 36
2019-06-19 12:00:00 -- -- -- -- -- -- -- -- --
2019-06-19 11:00:00 -- -- -- -- -- -- -- -- --
2019-06-19 10:00:00 -- -- -- -- -- -- -- -- --
2019-06-19 09:00:00 -- -- -- -- -- -- -- -- --
2019-06-19 08:00:00 -- -- -- -- -- -- -- -- --
2019-06-19 07:00:00 -- -- -- -- -- -- -- -- --
2019-06-19 06:00:00 -- -- -- -- -- -- -- -- --
2019-06-19 05:00:00 -- -- -- -- -- -- -- -- --
2019-06-19 04:00:00 -- -- -- -- -- -- -- -- --
2019-06-19 03:00:00 -- -- -- -- -- -- -- -- --
2019-06-19 02:00:00 -- -- -- -- -- -- -- -- --
2019-06-19 01:00:00 -- -- -- -- -- -- -- -- --
2019-06-19 00:00:00 -- -- -- -- -- -- -- -- --
2019-06-18 23:00:00 -- -- -- -- -- -- -- -- --
2019-06-18 22:00:00 -- -- -- -- -- -- -- -- --
2019-06-18 21:00:00 -- -- -- -- -- -- -- -- --
2019-06-18 20:00:00 -- -- -- -- -- -- -- -- --
2019-06-18 19:00:00 28.1 11 Norte 20 Norte 0 -- -- 39
2019-06-18 18:00:00 30.4 8 Norte 18 Norte 0 -- -- 33
2019-06-18 17:00:00 32.1 8 Norte 22 Norte 0 -- -- 31
2019-06-18 16:00:00 31.7 14 Norte 26 Norte 0 -- -- 32
2019-06-18 15:00:00 32.2 14 Nordeste 29 Nordeste 0 -- -- 34
2019-06-18 14:00:00 30.7 10 Nordeste 20 Nordeste 0 -- -- 38
2019-06-18 13:00:00 28.9 10 Nordeste 22 Nordeste 0 -- -- 43
2019-06-18 12:00:00 28.9 10 Nordeste 25 Nordeste 0 -- -- 43
2019-06-18 11:00:00 26.7 10 Nordeste 19 Nordeste 0 -- -- 51
2019-06-18 10:00:00 26.3 8 Este 14 Este 0 -- -- 49
2019-06-18 09:00:00 24.6 5 Este 12 Este 0 -- -- 55
2019-06-18 08:00:00 21.8 2 Nordeste 3 Nordeste 0 -- -- 62
2019-06-18 07:00:00 15.1 0 Calma 3 Norte 0 -- -- 83
2019-06-18 06:00:00 15.1 0 Calma 4 Nordeste 0 -- -- 82
2019-06-18 05:00:00 15.5 3 Norte 4 Norte 0 -- -- 81
2019-06-18 04:00:00 15.8 0 Calma 4 Norte 0 -- -- 82
2019-06-18 03:00:00 16.2 2 Norte 4 Norte 0 -- -- 81
2019-06-18 02:00:00 16.5 0 Calma 4 Norte 0 -- -- 80
2019-06-18 01:00:00 17.4 0 Calma 3 Nordeste 0 -- -- 77
2019-06-18 00:00:00 18.2 2 Nordeste 3 Norte 0 -- -- 74
2019-06-17 23:00:00 19.2 0 Calma 3 Nordeste 0 -- -- 70
2019-06-17 22:00:00 20.5 2 Nordeste 5 Norte 0 -- -- 66
2019-06-17 21:00:00 22.4 4 Norte 8 Nordeste 0 -- -- 58
2019-06-17 20:00:00 24.8 4 Este 14 Este 0 -- -- 51
2019-06-17 19:00:00 25.6 7 Sudeste 18 Sudeste 0 -- -- 50
2019-06-17 18:00:00 26.9 8 Este 19 Nordeste 0 -- -- 46
2019-06-17 17:00:00 29.4 7 Este 18 Norte 0 -- -- 31
2019-06-17 16:00:00 29 13 Norte 23 Nordeste 0 -- -- 37
2019-06-17 15:00:00 29.4 12 Nordeste 24 Nordeste 0 -- -- 33
2019-06-17 14:00:00 30 10 Nordeste 21 Nordeste 0 -- -- 31
2019-06-17 13:00:00 30.3 7 Este 18 Nordeste 0 -- -- 30
2019-06-17 12:00:00 29.5 10 Nordeste 17 Nordeste 0 -- -- 34
2019-06-17 11:00:00 29.1 6 Nordeste 13 Nordeste 0 -- -- 34
2019-06-17 10:00:00 28.6 3 Sudeste 8 Sudeste 0 -- -- 42
2019-06-17 09:00:00 24.7 3 Sudeste 5 Sudeste 0 -- -- 56
2019-06-17 08:00:00 21.8 0 Calma 4 Norte 0 -- -- 65
2019-06-17 07:00:00 15.4 0 Calma 5 Oeste 0 -- -- 87
2019-06-17 06:00:00 15.2 0 Calma 4 Norte 0 -- -- 85
2019-06-17 05:00:00 16 0 Calma 5 Norte 0 -- -- 80
2019-06-17 04:00:00 16.4 0 Calma 5 Norte 0 -- -- 76
2019-06-17 03:00:00 16.8 0 Calma 4 Oeste 0 -- -- 71
2019-06-17 02:00:00 17.3 0 Calma 5 Este 0 -- -- 68
2019-06-17 01:00:00 18.1 3 Este 8 Este 0 -- -- 65
2019-06-17 00:00:00 18.6 5 Oeste 10 Oeste 0 -- -- 61
2019-06-16 23:00:00 19 2 Oeste 6 Nordeste 0 -- -- 63
2019-06-16 22:00:00 19.9 3 Nordeste 8 Sudeste 0 -- -- 64
2019-06-16 21:00:00 22 2 Este 5 Este 0 -- -- 52
2019-06-16 20:00:00 23.1 3 Este 8 Sudeste 0 -- -- 47
2019-06-16 19:00:00 23.9 5 Nordeste 13 Este 0 -- -- 42
2019-06-16 18:00:00 25 7 Este 14 Este 0 -- -- 36
2019-06-16 17:00:00 25.8 5 Este 15 Sudeste 0 -- -- 38
2019-06-16 16:00:00 24.7 8 Este 20 Sudeste 0 -- -- 53
2019-06-16 15:00:00 24.8 9 Este 22 Norte 0 -- -- 54
2019-06-16 14:00:00 24.2 13 Norte 22 Norte 0 -- -- 51
2019-06-16 13:00:00 23.2 14 Norte 30 Norte 0 -- -- 55
2019-06-16 12:00:00 23.1 14 Nordeste 27 Nordeste 0 -- -- 56
2019-06-16 11:00:00 22.8 14 Norte 25 Norte 0 -- -- 57
2019-06-16 10:00:00 21.8 12 Nordeste 24 Este 0 -- -- 59
2019-06-16 09:00:00 22.2 7 Nordeste 20 Este 0 -- -- 58
2019-06-16 08:00:00 20.9 6 Nordeste 15 Nordeste 0 -- -- 62
2019-06-16 07:00:00 15.3 0 Calma -- -- 0 -- -- 91
2019-06-16 06:00:00 15 0 Calma -- -- 0 -- -- 92
2019-06-16 05:00:00 15.4 0 Calma -- -- 0 -- -- 92
2019-06-16 04:00:00 15.8 0 Calma -- -- 0 -- -- 91
2019-06-16 03:00:00 16.3 0 Calma 4 Nordeste 0 -- -- 89
2019-06-16 02:00:00 16.7 0 Calma 4 Nordeste 0 -- -- 86
2019-06-16 01:00:00 18 0 Calma 13 Nordeste 0 -- -- 80
2019-06-16 00:00:00 19.8 4 Nordeste 17 Norte 0 -- -- 79
2019-06-15 23:00:00 20.2 5 Norte 11 Norte 0 -- -- 81
2019-06-15 22:00:00 20 5 Nordeste 13 Norte 0 -- -- 82
2019-06-15 21:00:00 20.5 4 Nordeste 19 Norte 0 -- -- 82
2019-06-15 20:00:00 21.9 12 Norte 19 Norte 0 -- -- 76
2019-06-15 19:00:00 23.5 9 Nordeste 20 Este 0 -- -- 69
2019-06-15 18:00:00 26.2 11 Norte 20 Sur 0 -- -- 56
2019-06-15 17:00:00 26.2 11 Nordeste 22 Nordeste 0 -- -- 60
2019-06-15 16:00:00 26.4 14 Nordeste 23 Nordeste 0 -- -- 58
2019-06-15 15:00:00 26.3 15 Nordeste 31 Nordeste 0 -- -- 56
2019-06-15 14:00:00 26.7 15 Norte 26 Norte 0 -- -- 52
2019-06-15 13:00:00 27.6 10 Norte 23 Norte 0 -- -- 48
2019-06-15 12:00:00 27.3 11 Nordeste 19 Norte 0 -- -- 47
2019-06-15 11:00:00 27.8 6 Noroeste 15 Oeste 0 -- -- 44
2019-06-15 10:00:00 27.6 2 Oeste 16 Sur 0 -- -- 48
2019-06-15 09:00:00 24.7 3 Oeste 8 Norte 0 -- -- 56
2019-06-15 08:00:00 20.5 4 Norte 8 Norte 0 -- -- 65
2019-06-15 07:00:00 14.8 2 Nordeste 7 Nordeste 0 -- -- 87
2019-06-15 06:00:00 14.8 3 Norte 8 Nordeste 0 -- -- 89
2019-06-15 05:00:00 14.4 0 Calma 4 Norte 0 -- -- 89
2019-06-15 04:00:00 15.2 0 Calma 4 Nordeste 0 -- -- 87
2019-06-15 03:00:00 16.1 0 Calma 4 Norte 0 -- -- 88
2019-06-15 02:00:00 16.9 0 Calma 6 Oeste 0 -- -- 82
2019-06-15 01:00:00 18.9 4 Oeste 12 Norte 0 -- -- 76
2019-06-15 00:00:00 19.9 6 Norte 14 Sudoeste 0 -- -- 79
2019-06-14 23:00:00 22.2 6 Sur 25 Sur 0 -- -- 64
2019-06-14 22:00:00 21.9 9 Sudoeste 26 Sudeste 0 -- -- 70
2019-06-14 21:00:00 23.7 14 Sur 28 Sudoeste 0 -- -- 59
2019-06-14 20:00:00 26.5 12 Sudoeste 24 Sudoeste 0 -- -- 44
2019-06-14 19:00:00 27.9 9 Oeste 22 Oeste 0 -- -- 40
2019-06-14 18:00:00 28.1 12 Oeste 24 Oeste 0 -- -- 39
2019-06-14 17:00:00 27 13 Norte 29 Noroeste 0 -- -- 50
2019-06-14 16:00:00 25.1 15 Noroeste 33 Noroeste 0 -- -- 57
2019-06-14 15:00:00 24.6 15 Noroeste 44 Sudoeste 0 -- -- 60
2019-06-14 14:00:00 24.2 27 Oeste 52 Noroeste 0 -- -- 61
2019-06-14 13:00:00 25.2 20 Oeste 42 Oeste 0 -- -- 60
2019-06-14 12:00:00 24.1 23 Oeste 39 Sudoeste 0 -- -- 64
2019-06-14 11:00:00 23.2 18 Oeste 30 Noroeste 0 -- -- 68
2019-06-14 10:00:00 22.8 9 Oeste 23 Sur 0 -- -- 72
2019-06-14 09:00:00 24 8 Sudoeste 20 Oeste 0 -- -- 69
2019-06-14 08:00:00 21.9 5 Oeste 14 Sudoeste 0 -- -- 77
2019-06-14 07:00:00 20.2 4 Sudoeste 9 Oeste 0 -- -- 86
2019-06-14 06:00:00 19.6 3 Oeste 8 Oeste 0 -- -- 88
2019-06-14 05:00:00 18.8 3 Noroeste 6 Oeste 0 -- -- 91
2019-06-14 04:00:00 19.1 3 Noroeste 9 Oeste 0 -- -- 91
2019-06-14 03:00:00 19.1 0 Calma 6 Norte 0 -- -- 90
2019-06-14 02:00:00 18.8 4 Norte 9 Norte 0 -- -- 89
2019-06-14 01:00:00 18.9 2 Sudoeste 6 Sur 0 -- -- 87
2019-06-14 00:00:00 19.7 0 Calma 6 Este 0 -- -- 84
2019-06-13 23:00:00 19.9 4 Norte 18 Nordeste 0 -- -- 84
2019-06-13 22:00:00 20.3 6 Nordeste 20 Sudeste 0 -- -- 81
2019-06-13 21:00:00 21.5 8 Este 19 Este 0 -- -- 72
2019-06-13 20:00:00 21.9 8 Nordeste 20 Nordeste 0 -- -- 73
2019-06-13 19:00:00 22.5 12 Nordeste 22 Este 0 -- -- 67
2019-06-13 18:00:00 23.7 10 Nordeste 23 Este 0 -- -- 61
2019-06-13 17:00:00 22.9 10 Este 18 Este 0 -- -- 61
2019-06-13 16:00:00 23 12 Este 23 Nordeste 0 -- -- 60
2019-06-13 15:00:00 22.4 11 Este 22 Este 0 -- -- 61
2019-06-13 14:00:00 23.8 10 Este 20 Este 0 -- -- 56
2019-06-13 13:00:00 24 9 Este 21 Este 0 -- -- 55
2019-06-13 12:00:00 22.2 9 Este 24 Nordeste 0 -- -- 59
2019-06-13 11:00:00 21.2 11 Nordeste 26 Nordeste 0 -- -- 63
2019-06-13 10:00:00 21.6 12 Este 22 Este 0 -- -- 64
2019-06-13 09:00:00 20.4 6 Este 21 Nordeste 0 -- -- 71
2019-06-13 08:00:00 18.4 0 Calma 3 Norte 0 -- -- 71
2019-06-13 07:00:00 13.5 0 Calma 5 Norte 0 -- -- 91
2019-06-13 06:00:00 12.5 0 Calma 3 Nordeste 0 -- -- 92
2019-06-13 05:00:00 12.7 0 Calma 3 Nordeste 0 -- -- 91
2019-06-13 04:00:00 13.1 0 Calma 3 Norte 0 -- -- 90
2019-06-13 03:00:00 13.9 0 Calma 4 Oeste 0 -- -- 87
2019-06-13 02:00:00 14.4 3 Noroeste 8 Oeste 0 -- -- 86
2019-06-13 01:00:00 14.9 0 Calma 4 Oeste 0 -- -- 84
2019-06-13 00:00:00 16.1 3 Norte 12 Sudoeste 0 -- -- 79
2019-06-12 23:00:00 17.9 3 Sudoeste 14 Sudeste 0 -- -- 71
2019-06-12 22:00:00 18.5 3 Sudeste 9 Sur 0 -- -- 71
2019-06-12 21:00:00 19 4 Este 12 Este 0 -- -- 69
2019-06-12 20:00:00 19.2 8 Nordeste 19 Este 0 -- -- 69
2019-06-12 19:00:00 20.4 10 Nordeste 21 Este 0 -- -- 60
2019-06-12 18:00:00 21.1 10 Este 22 Este 0 -- -- 56
2019-06-12 17:00:00 22.1 9 Este 30 Este 0 -- -- 52
2019-06-12 16:00:00 21.8 10 Nordeste 23 Este 0 -- -- 51
2019-06-12 15:00:00 21.5 10 Este 24 Nordeste 0 -- -- 52
2019-06-12 14:00:00 21.4 10 Este 23 Sudeste 0 -- -- 52
2019-06-12 13:00:00 21.3 11 Este 25 Sudeste 0 -- -- 54
2019-06-12 12:00:00 20.6 10 Nordeste 21 Nordeste 0 -- -- 59
2019-06-12 11:00:00 19.1 7 Nordeste 15 Nordeste 0 -- -- 65
2019-06-12 10:00:00 18.2 5 Nordeste 10 Nordeste 0 -- -- 68
2019-06-12 09:00:00 18 3 Nordeste 7 Norte 0 -- -- 67
2019-06-12 08:00:00 17 0 Calma -- -- 0 -- -- 80
2019-06-12 07:00:00 15.6 0 Calma 6 Noroeste 0 -- -- 92
2019-06-12 06:00:00 15.3 0 Calma 3 Nordeste 0 -- -- 93
2019-06-12 05:00:00 15.5 0 Calma 5 Oeste 0 -- -- 91
2019-06-12 04:00:00 15.5 3 Oeste 6 Noroeste 0 -- -- 89
2019-06-12 03:00:00 15.3 2 Oeste 5 Oeste 0.2 -- -- 90
2019-06-12 02:00:00 15.4 0 Calma 14 Norte 0 -- -- 85
2019-06-12 01:00:00 15.4 2 Nordeste 14 Norte 0 -- -- 85
2019-06-12 00:00:00 15.3 4 Norte 14 Norte 0.2 -- -- 88
2019-06-11 23:00:00 15.2 5 Norte 21 Norte 0.2 -- -- 91
2019-06-11 22:00:00 16.1 10 Norte 24 Nordeste 0.2 -- -- 90
2019-06-11 21:00:00 16.9 5 Norte 28 Norte 0 -- -- 88
2019-06-11 20:00:00 18.2 15 Norte 31 Norte 0 -- -- 83
2019-06-11 19:00:00 21.6 9 Noroeste 21 Noroeste 0 -- -- 70
2019-06-11 18:00:00 24.6 9 Noroeste 20 Oeste 0 -- -- 55
2019-06-11 17:00:00 24.7 9 Noroeste 30 Oeste 0 -- -- 52
2019-06-11 16:00:00 24.8 17 Oeste 31 Este 0 -- -- 52
2019-06-11 15:00:00 25.7 9 Sudeste 39 Este 0 -- -- 46
2019-06-11 14:00:00 25.3 11 Sudeste 26 Sudeste 0 -- -- 51
2019-06-11 13:00:00 23.9 8 Sudeste 20 Nordeste 0 -- -- 56
2019-06-11 12:00:00 21.9 9 Nordeste 18 Nordeste 0 -- -- 64
2019-06-11 11:00:00 21.6 8 Nordeste 17 Nordeste 0 -- -- 64
2019-06-11 10:00:00 21.9 5 Este 15 Este 0 -- -- 64
2019-06-11 09:00:00 19.6 5 Sudeste 15 Sudeste 0 -- -- 72
2019-06-11 08:00:00 19.3 3 Sudeste 9 Sudeste 0 -- -- 77
2019-06-11 07:00:00 16.4 0 Calma 4 Sudeste 0 -- -- 90
2019-06-11 06:00:00 15.7 0 Calma 2 Norte 0 -- -- 88
2019-06-11 05:00:00 15.9 0 Calma 4 Nordeste 0 -- -- 86
2019-06-11 04:00:00 16.9 0 Calma 7 Sudeste 0 -- -- 82
2019-06-11 03:00:00 18.7 4 Sudeste 10 Sudeste 0 -- -- 79
2019-06-11 02:00:00 19.4 3 Sudoeste 13 Sudoeste 0 -- -- 72
2019-06-11 01:00:00 19.7 3 Norte 16 Este 0 -- -- 67
2019-06-11 00:00:00 19.5 2 Nordeste 6 Este 0 -- -- 61
2019-06-10 23:00:00 19 3 Nordeste 17 Sur 0 -- -- 65
2019-06-10 22:00:00 20.3 4 Sur 19 Sudeste 0 -- -- 61
2019-06-10 21:00:00 21.1 4 Sudeste 13 Nordeste 0 -- -- 58
2019-06-10 20:00:00 22.9 5 Este 15 Sudeste 0 -- -- 45
2019-06-10 19:00:00 24.2 6 Este 16 Norte 0 -- -- 49
2019-06-10 18:00:00 25.1 9 Norte 20 Este 0 -- -- 43
2019-06-10 17:00:00 26.3 12 Nordeste 27 Norte 0 -- -- 38
2019-06-10 16:00:00 26.3 12 Norte 25 Norte 0 -- -- 39
2019-06-10 15:00:00 26.8 12 Norte 24 Norte 0 -- -- 39
2019-06-10 14:00:00 26.1 9 Norte 26 Nordeste 0 -- -- 43
2019-06-10 13:00:00 26.4 8 Norte 22 Nordeste 0 -- -- 43
2019-06-10 12:00:00 25.3 8 Norte 18 Norte 0 -- -- 47
2019-06-10 11:00:00 23.7 7 Noroeste 16 Noroeste 0 -- -- 55
2019-06-10 10:00:00 21.4 7 Norte 19 Norte 0 -- -- 66
2019-06-10 09:00:00 22.4 6 Nordeste 19 Nordeste 0 -- -- 64
2019-06-10 08:00:00 21.3 6 Norte 18 Norte 0 -- -- 67
2019-06-10 07:00:00 18.8 0 Calma 9 Nordeste 0 -- -- 78
2019-06-10 06:00:00 18.7 2 Norte 10 Norte 0 -- -- 77
2019-06-10 05:00:00 17.7 0 Calma 6 Nordeste 0 -- -- 87
2019-06-10 04:00:00 18.4 3 Nordeste 18 Oeste 0 -- -- 82
2019-06-10 03:00:00 19.4 8 Oeste 22 Oeste 0 -- -- 80
2019-06-10 02:00:00 19.4 5 Oeste 13 Oeste 0 -- -- 81
2019-06-10 01:00:00 19.6 6 Oeste 13 Sudoeste 0 -- -- 81
2019-06-10 00:00:00 20 6 Oeste 17 Oeste 0 -- -- 78
2019-06-09 23:00:00 20.5 7 Oeste 15 Oeste 0 -- -- 75
2019-06-09 22:00:00 20.4 5 Norte 14 Norte 0 -- -- 78
2019-06-09 21:00:00 21.2 9 Norte 14 Norte 0 -- -- 72
2019-06-09 20:00:00 24.2 5 Oeste 10 Nordeste 0 -- -- 59
2019-06-09 19:00:00 24.4 6 Norte 14 Norte 0 -- -- 54
2019-06-09 18:00:00 27.3 7 Noroeste 15 Noroeste 0 -- -- 47
2019-06-09 17:00:00 27.3 11 Oeste 23 Noroeste 0 -- -- 45
2019-06-09 16:00:00 26.9 10 Noroeste 24 Oeste 0 -- -- 43
2019-06-09 15:00:00 29 11 Noroeste 21 Oeste 0 -- -- 42
2019-06-09 14:00:00 27.2 9 Noroeste 18 Oeste 0 -- -- 42
2019-06-09 13:00:00 25.5 3 Sudeste 13 Este 0 -- -- 58
2019-06-09 12:00:00 26.3 6 Este 13 Sudeste 0 -- -- 57
2019-06-09 11:00:00 25 4 Este 12 Sudeste 0 -- -- 60
2019-06-09 10:00:00 24.1 4 Sudeste 11 Sudeste 0 -- -- 63
2019-06-09 09:00:00 21.5 3 Nordeste 8 Oeste 0 -- -- 71
2019-06-09 08:00:00 18.9 0 Calma 4 Norte 0 -- -- 78
2019-06-09 07:00:00 17 2 Noroeste 8 Oeste 0 -- -- 83
2019-06-09 06:00:00 16.6 3 Oeste 5 Oeste 0 -- -- 83
2019-06-09 05:00:00 16.2 0 Calma 4 Noroeste 0 -- -- 81
2019-06-09 04:00:00 16.5 0 Calma 9 Este 0 -- -- 77
2019-06-09 03:00:00 16.9 0 Calma 8 Sudoeste 0 -- -- 75
2019-06-09 02:00:00 16.7 0 Calma 5 Oeste 0 -- -- 79
2019-06-09 01:00:00 17.4 0 Calma 7 Oeste 0 -- -- 72
2019-06-09 00:00:00 16.7 3 Norte 8 Norte 0 -- -- 73
2019-06-08 23:00:00 17.6 0 Calma 6 Norte 0 -- -- 74
2019-06-08 22:00:00 18.8 5 Norte 10 Norte 0 -- -- 69
2019-06-08 21:00:00 19.6 2 Este 11 Este 0 -- -- 61
2019-06-08 20:00:00 21.1 4 Este 17 Este 0 -- -- 54
2019-06-08 19:00:00 21.6 8 Este 19 Este 0 -- -- 49
2019-06-08 18:00:00 22.8 10 Este 26 Este 0 -- -- 45
2019-06-08 17:00:00 23.5 10 Este 25 Este 0 -- -- 43
2019-06-08 16:00:00 23.5 11 Este 22 Este 0 -- -- 40
2019-06-08 15:00:00 23.4 10 Este 27 Nordeste 0 -- -- 45
2019-06-08 14:00:00 23.2 11 Este 29 Este 0 -- -- 46
2019-06-08 13:00:00 22.7 12 Este 32 Este 0 -- -- 47
2019-06-08 12:00:00 22.7 13 Este 30 Este 0 -- -- 49
2019-06-08 11:00:00 22.7 12 Este 26 Sudeste 0 -- -- 49
2019-06-08 10:00:00 21.4 12 Este 28 Este 0 -- -- 53
2019-06-08 09:00:00 20.4 6 Este 22 Nordeste 0 -- -- 53
2019-06-08 08:00:00 19.6 6 Nordeste 28 Este 0 -- -- 55
2019-06-08 07:00:00 19.2 4 Nordeste 20 Nordeste 0 -- -- 56
2019-06-08 06:00:00 19.3 6 Este 23 Nordeste 0 -- -- 54
2019-06-08 05:00:00 19.1 5 Sudeste 20 Norte 0 -- -- 59
2019-06-08 04:00:00 19 7 Este 21 Este 0 -- -- 74
2019-06-08 03:00:00 19.2 4 Norte 23 Este 0 -- -- 72
2019-06-08 02:00:00 20.1 4 Nordeste 15 Nordeste 0 -- -- 80
2019-06-08 01:00:00 19.1 4 Nordeste 13 Norte 0 -- -- 74
2019-06-08 00:00:00 18.3 0 Calma 5 Norte 0 -- -- 61
2019-06-07 23:00:00 18.9 0 Calma 4 Sur 0 -- -- 64
2019-06-07 22:00:00 21.1 2 Este 9 Oeste 0 -- -- 52
2019-06-07 21:00:00 24.1 4 Noroeste 10 Oeste 0 -- -- 38
2019-06-07 20:00:00 25.2 5 Oeste 19 Oeste 0 -- -- 39
2019-06-07 19:00:00 25.6 9 Noroeste 18 Este 0 -- -- 46
2019-06-07 18:00:00 27.2 8 Este 23 Este 0 -- -- 45
2019-06-07 17:00:00 28.7 5 Noroeste 18 Nordeste 0 -- -- 41
2019-06-07 16:00:00 28.9 7 Sudeste 28 Este 0 -- -- 42
2019-06-07 15:00:00 28.3 7 Sudeste 21 Sudeste 0 -- -- 44
2019-06-07 14:00:00 29 10 Este 22 Sudeste 0 -- -- 44
2019-06-07 13:00:00 27.7 12 Nordeste 18 Norte 0 -- -- 47
2019-06-07 12:00:00 26.1 8 Este 16 Este 0 -- -- 53
2019-06-07 11:00:00 26.6 4 Oeste 13 Sudeste 0 -- -- 49
2019-06-07 10:00:00 24.7 5 Sudeste 13 Este 0 -- -- 58
2019-06-07 09:00:00 23.7 0 Calma 8 Norte 0 -- -- 53
2019-06-07 08:00:00 18.3 0 Calma 7 Sur 0 -- -- 71
2019-06-07 07:00:00 16.1 0 Calma 4 Norte 0 -- -- 81
2019-06-07 06:00:00 15.8 2 Oeste 6 Oeste 0 -- -- 80
2019-06-07 05:00:00 16.8 0 Calma 12 Sudeste 0 -- -- 79
2019-06-07 04:00:00 17.5 3 Este 13 Este 0 -- -- 79
2019-06-07 03:00:00 18.6 7 Este 14 Este 0 -- -- 78
2019-06-07 02:00:00 18.8 3 Este 15 Este 0 -- -- 75
2019-06-07 01:00:00 19.8 3 Noroeste 18 Oeste 0 -- -- 71
2019-06-07 00:00:00 19.5 5 Nordeste 20 Nordeste 0 -- -- 77
2019-06-06 23:00:00 19.7 9 Nordeste 37 Este 0 -- -- 77
2019-06-06 22:00:00 20 10 Nordeste 33 Sudeste 0 -- -- 74
2019-06-06 21:00:00 21.1 11 Sudeste 28 Sudeste 0 -- -- 67
2019-06-06 20:00:00 23.1 9 Sudeste 25 Sudeste 0 -- -- 58
2019-06-06 19:00:00 24.9 12 Sudeste 30 Sudeste 0 -- -- 45
2019-06-06 18:00:00 26.5 10 Sudeste 27 Sudeste 0 -- -- 43
2019-06-06 17:00:00 27.3 10 Este 26 Nordeste 0 -- -- 40
2019-06-06 16:00:00 25.2 12 Nordeste 27 Nordeste 0 -- -- 54
2019-06-06 15:00:00 25.9 12 Nordeste 26 Nordeste 0 -- -- 47
2019-06-06 14:00:00 24.6 15 Nordeste 27 Este 0 -- -- 53
2019-06-06 13:00:00 23.7 14 Nordeste 27 Nordeste 0 -- -- 55
2019-06-06 12:00:00 23.6 10 Nordeste 18 Este 0 -- -- 53
2019-06-06 11:00:00 23.7 9 Nordeste 17 Nordeste 0 -- -- 49
2019-06-06 10:00:00 22.4 6 Este 15 Sudeste 0 -- -- 54
2019-06-06 09:00:00 21.7 5 Este 12 Sudeste 0 -- -- 57
2019-06-06 08:00:00 20.5 2 Sudeste 5 Este 0 -- -- 65
2019-06-06 07:00:00 15.7 0 Calma 5 Este 0 -- -- 83
2019-06-06 06:00:00 16.8 3 Nordeste 8 Este 0 -- -- 78
2019-06-06 05:00:00 17.3 3 Nordeste 9 Este 0 -- -- 78
2019-06-06 04:00:00 17.4 3 Este 15 Este 0 -- -- 78
2019-06-06 03:00:00 18 5 Este 15 Norte 0 -- -- 77
2019-06-06 02:00:00 19.3 3 Oeste 11 Oeste 0 -- -- 49
2019-06-06 01:00:00 19.9 5 Oeste 16 Sudoeste 0 -- -- 45
2019-06-06 00:00:00 20.1 4 Oeste 13 Sudoeste 0 -- -- 44
2019-06-05 23:00:00 21.1 9 Oeste 21 Noroeste 0 -- -- 41
2019-06-05 22:00:00 19.6 2 Nordeste 21 Oeste 0 -- -- 51
2019-06-05 21:00:00 21.6 10 Oeste 26 Sudoeste 0 -- -- 55
2019-06-05 20:00:00 23.4 6 Oeste 32 Noroeste 0 -- -- 42
2019-06-05 19:00:00 23.2 17 Oeste 42 Oeste 0 -- -- 51
2019-06-05 18:00:00 25.7 19 Oeste 47 Oeste 0 -- -- 27
2019-06-05 17:00:00 28 22 Oeste 46 Oeste 0 -- -- 18
2019-06-05 16:00:00 28.9 21 Oeste 57 Oeste 0 -- -- 27
2019-06-05 15:00:00 29.5 21 Oeste 40 Oeste 0 -- -- 32
2019-06-05 14:00:00 30.2 5 Noroeste 19 Oeste 0 -- -- 38
2019-06-05 13:00:00 26.8 7 Noroeste 23 Sudoeste 0 -- -- 52
2019-06-05 12:00:00 27 12 Sudoeste 35 Sudoeste 0 -- -- 50
2019-06-05 11:00:00 26.9 6 Sudoeste 25 Oeste 0 -- -- 41
2019-06-05 10:00:00 25.4 6 Este 14 Sur 0 -- -- 56
2019-06-05 09:00:00 22.4 7 Nordeste 12 Nordeste 0 -- -- 62
2019-06-05 08:00:00 19 0 Calma 4 Norte 0 -- -- 67
2019-06-05 07:00:00 13.9 0 Calma 4 Nordeste 0 -- -- 87
2019-06-05 06:00:00 14.1 0 Calma 5 Norte 0 -- -- 87
2019-06-05 05:00:00 14.2 4 Norte 7 Norte 0 -- -- 88
2019-06-05 04:00:00 15.2 2 Norte 5 Norte 0 -- -- 85
2019-06-05 03:00:00 16.5 0 Calma 9 Nordeste 0 -- -- 79
2019-06-05 02:00:00 17.8 2 Oeste 13 Sur 0 -- -- 74
2019-06-05 01:00:00 20.3 10 Sur 22 Sur 0 -- -- 64
2019-06-05 00:00:00 20.5 5 Sudeste 17 Sur 0 -- -- 57
2019-06-04 23:00:00 22.4 6 Sudeste 30 Sudeste 0 -- -- 49
2019-06-04 22:00:00 23.4 13 Sudeste 27 Sudeste 0 -- -- 46
2019-06-04 21:00:00 24.8 12 Sudeste 25 Sudeste 0 -- -- 39
2019-06-04 20:00:00 26.4 14 Sudeste 32 Sudeste 0 -- -- 35
2019-06-04 19:00:00 27.6 14 Sudeste 32 Sudeste 0 -- -- 32
2019-06-04 18:00:00 30.2 12 Sudeste 25 Sudeste 0 -- -- 27
2019-06-04 17:00:00 32.1 13 Sudeste 27 Sur 0 -- -- 26
2019-06-04 16:00:00 33.1 12 Sur 24 Sudeste 0 -- -- 23
2019-06-04 15:00:00 32.6 12 Sudeste 32 Sudeste 0 -- -- 23
2019-06-04 14:00:00 30.9 13 Sudeste 34 Sudeste 0 -- -- 27
2019-06-04 13:00:00 31 8 Sur 39 Este 0 -- -- 27
2019-06-04 12:00:00 29.8 7 Oeste 29 Sudoeste 0 -- -- 27
2019-06-04 11:00:00 28.2 11 Sudoeste 29 Sur 0 -- -- 29
2019-06-04 10:00:00 26.9 6 Oeste 23 Sudeste 0 -- -- 31
2019-06-04 09:00:00 25.6 4 Sur 17 Este 0 -- -- 33
2019-06-04 08:00:00 20.4 0 Calma 4 Nordeste 0 -- -- 50
2019-06-04 07:00:00 14.4 0 Calma 4 Nordeste 0 -- -- 67
2019-06-04 06:00:00 14.5 2 Nordeste 8 Sur 0 -- -- 63
2019-06-04 05:00:00 14.9 3 Nordeste 6 Nordeste 0 -- -- 62
2019-06-04 04:00:00 15.7 3 Nordeste 11 Sudoeste 0 -- -- 58
2019-06-04 03:00:00 18.4 3 Sudeste 11 Sur 0 -- -- 47
2019-06-04 02:00:00 18.8 3 Sudoeste 17 Sudeste 0 -- -- 47
2019-06-04 01:00:00 21.7 7 Sudeste 18 Sudeste 0 -- -- 35
2019-06-04 00:00:00 22.3 8 Sur 22 Sudoeste 0 -- -- 35
2019-06-03 23:00:00 21.1 5 Sur 11 Este 0 -- -- 42
2019-06-03 22:00:00 20.3 3 Norte 6 Norte 0 -- -- 62
2019-06-03 21:00:00 22.1 4 Norte 13 Norte 0 -- -- 53
2019-06-03 20:00:00 24.6 10 Norte 19 Norte 0 -- -- 44
2019-06-03 19:00:00 27 9 Norte 18 Norte 0 -- -- 38
2019-06-03 18:00:00 28.5 12 Norte 29 Norte 0 -- -- 34
2019-06-03 17:00:00 30.9 15 Nordeste 31 Nordeste 0 -- -- 29
2019-06-03 16:00:00 30.7 12 Nordeste 28 Norte 0 -- -- 30
2019-06-03 15:00:00 30.2 14 Nordeste 22 Nordeste 0 -- -- 28
2019-06-03 14:00:00 28.6 16 Nordeste 24 Nordeste 0 -- -- 32
2019-06-03 13:00:00 27.7 10 Nordeste 19 Nordeste 0 -- -- 37
2019-06-03 12:00:00 27.8 7 Este 16 Este 0 -- -- 33
2019-06-03 11:00:00 27.7 5 Este 11 Este 0 -- -- 32
2019-06-03 10:00:00 26 4 Nordeste 11 Este 0 -- -- 36
2019-06-03 09:00:00 24.5 0 Calma 5 Nordeste 0 -- -- 43
2019-06-03 08:00:00 20.5 0 Calma 4 Norte 0 -- -- 58
2019-06-03 07:00:00 13 0 Calma 3 Norte 0 -- -- 83
2019-06-03 06:00:00 13.1 0 Calma 4 Norte 0 -- -- 81
2019-06-03 05:00:00 13.6 0 Calma 4 Nordeste 0 -- -- 78
2019-06-03 04:00:00 13.9 0 Calma 3 Norte 0 -- -- 75
2019-06-03 03:00:00 14.4 0 Calma 4 Norte 0 -- -- 72
2019-06-03 02:00:00 15.1 0 Calma 4 Nordeste 0 -- -- 69
2019-06-03 01:00:00 16.5 0 Calma 5 Nordeste 0 -- -- 62
2019-06-03 00:00:00 18.8 3 Noroeste 13 Sudoeste 0 -- -- 51
2019-06-02 23:00:00 22.2 6 Sur 17 Sudoeste 0 -- -- 37
2019-06-02 22:00:00 23.2 8 Sur 19 Sudoeste 0 -- -- 38
2019-06-02 21:00:00 22.7 3 Norte 10 Nordeste 0 -- -- 47
2019-06-02 20:00:00 25.2 5 Nordeste 12 Sudeste 0 -- -- 40
2019-06-02 19:00:00 26.2 5 Sudeste 13 Noroeste 0 -- -- 40
2019-06-02 18:00:00 27.6 7 Nordeste 16 Sudeste 0 -- -- 34
2019-06-02 17:00:00 28 8 Este 21 Este 0 -- -- 35
2019-06-02 16:00:00 28 9 Este 22 Sudeste 0 -- -- 36
2019-06-02 15:00:00 27.2 10 Este 22 Este 0 -- -- 43
2019-06-02 14:00:00 27.6 9 Este 23 Sudeste 0 -- -- 42
2019-06-02 13:00:00 27.1 10 Nordeste 17 Nordeste 0 -- -- 38
2019-06-02 12:00:00 27.5 6 Este 20 Sudeste 0 -- -- 35
2019-06-02 11:00:00 27 7 Sudeste 17 Sudeste 0 -- -- 31
2019-06-02 10:00:00 25.9 7 Sudeste 14 Sudeste 0 -- -- 29
2019-06-02 09:00:00 23.2 3 Nordeste 7 Nordeste 0 -- -- 48
2019-06-02 08:00:00 19.7 0 Calma 3 Norte 0 -- -- 60
2019-06-02 07:00:00 12.9 0 Calma -- -- 0 -- -- 85
2019-06-02 06:00:00 12.6 0 Calma -- -- 0 -- -- 87
2019-06-02 05:00:00 12.9 0 Calma -- -- 0 -- -- 85
2019-06-02 04:00:00 13.5 0 Calma 4 Norte 0 -- -- 84
2019-06-02 03:00:00 13.7 0 Calma 3 Nordeste 0 -- -- 84
2019-06-02 02:00:00 14.6 0 Calma 4 Norte 0 -- -- 81
2019-06-02 01:00:00 15.3 0 Calma 3 Norte 0 -- -- 79
2019-06-02 00:00:00 16.2 0 Calma 3 Norte 0 -- -- 76
2019-06-01 23:00:00 17.2 0 Calma 3 Norte 0 -- -- 76
2019-06-01 22:00:00 18.4 0 Calma 5 Oeste 0 -- -- 73
2019-06-01 21:00:00 20.5 4 Sudeste 10 Este 0 -- -- 65
2019-06-01 20:00:00 22.4 5 Sudeste 14 Sudeste 0 -- -- 50
2019-06-01 19:00:00 23.3 5 Este 18 Nordeste 0 -- -- 47
2019-06-01 18:00:00 24.5 8 Nordeste 18 Nordeste 0 -- -- 43
2019-06-01 17:00:00 24.9 11 Nordeste 21 Este 0 -- -- 41
2019-06-01 16:00:00 25.7 9 Este 21 Nordeste 0 -- -- 37
2019-06-01 15:00:00 26.4 8 Este 19 Este 0 -- -- 36
2019-06-01 14:00:00 26 8 Este 18 Este 0 -- -- 38
2019-06-01 13:00:00 26.2 8 Este 18 Este 0 -- -- 36
2019-06-01 12:00:00 26.1 8 Sudeste 16 Sudeste 0 -- -- 36
2019-06-01 11:00:00 25.3 6 Este 16 Este 0 -- -- 35
2019-06-01 10:00:00 25.3 5 Sudeste 12 Sudeste 0 -- -- 40
2019-06-01 09:00:00 24.1 0 Calma 4 Norte 0 -- -- 50
2019-06-01 08:00:00 19.3 2 Nordeste 4 Nordeste 0 -- -- 65
2019-06-01 07:00:00 13.1 2 Norte 4 Norte 0 -- -- 88
2019-06-01 06:00:00 12.8 0 Calma 4 Norte 0 -- -- 88
2019-06-01 05:00:00 13.1 0 Calma 4 Nordeste 0 -- -- 88
2019-06-01 04:00:00 13.5 2 Norte 4 Nordeste 0 -- -- 88
2019-06-01 03:00:00 14 0 Calma 4 Nordeste 0 -- -- 86
2019-06-01 02:00:00 14.4 3 Norte 4 Nordeste 0 -- -- 86
2019-06-01 01:00:00 14.9 3 Norte 4 Nordeste 0 -- -- 84
2019-06-01 00:00:00 15.8 0 Calma 4 Nordeste 0 -- -- 81
2019-05-31 23:00:00 16.4 3 Nordeste 4 Oeste 0 -- -- 80
2019-05-31 22:00:00 17.4 0 Calma 5 Sudeste 0 -- -- 73
2019-05-31 21:00:00 19.8 0 Calma 9 Sudeste 0 -- -- 64
2019-05-31 20:00:00 21.6 6 Sudeste 14 Sudeste 0 -- -- 61
2019-05-31 19:00:00 23.1 5 Nordeste 16 Nordeste 0 -- -- 48
2019-05-31 18:00:00 23.5 9 Este 24 Este 0 -- -- 49
2019-05-31 17:00:00 25.8 9 Nordeste 20 Nordeste 0 -- -- 42
2019-05-31 16:00:00 25.3 14 Nordeste 24 Norte 0 -- -- 42
2019-05-31 15:00:00 26.2 12 Nordeste 23 Nordeste 0 -- -- 37
2019-05-31 14:00:00 25.8 10 Nordeste 22 Norte 0 -- -- 31
2019-05-31 13:00:00 25.7 7 Norte 17 Oeste 0 -- -- 33
2019-05-31 12:00:00 25.5 9 Oeste 17 Noroeste 0 -- -- 32
2019-05-31 11:00:00 25.1 8 Noroeste 19 Oeste 0 -- -- 31
2019-05-31 10:00:00 23.8 7 Norte 19 Noroeste 0 -- -- 30
2019-05-31 09:00:00 23.3 6 Noroeste 16 Sudoeste 0 -- -- 35
2019-05-31 08:00:00 22.4 3 Sudoeste 16 Oeste 0 -- -- 37
2019-05-31 07:00:00 17.9 5 Sudoeste 18 Oeste 0 -- -- 47
2019-05-31 06:00:00 17.5 4 Sudoeste 18 Oeste 0 -- -- 52
2019-05-31 05:00:00 17.4 7 Sudoeste 15 Sudoeste 0 -- -- 55
2019-05-31 04:00:00 17.5 5 Sudoeste 16 Sudoeste 0 -- -- 55
2019-05-31 03:00:00 15.1 4 Noroeste 13 Oeste 0 -- -- 68
2019-05-31 02:00:00 14 0 Calma 4 Nordeste 0 -- -- 75
2019-05-31 01:00:00 14.5 0 Calma 4 Nordeste 0 -- -- 75
2019-05-31 00:00:00 15.6 0 Calma 5 Nordeste 0 -- -- 66
2019-05-30 23:00:00 17.8 0 Calma 19 Oeste 0 -- -- 54
2019-05-30 22:00:00 19.8 8 Oeste 17 Oeste 0 -- -- 45
2019-05-30 21:00:00 20.4 7 Oeste 15 Noroeste 0 -- -- 47
2019-05-30 20:00:00 21.8 5 Noroeste 17 Oeste 0 -- -- 43
2019-05-30 19:00:00 22.6 8 Noroeste 21 Noroeste 0 -- -- 39
2019-05-30 18:00:00 24 6 Noroeste 19 Noroeste 0 -- -- 37
2019-05-30 17:00:00 25.1 11 Noroeste 26 Oeste 0 -- -- 35
2019-05-30 16:00:00 25.2 10 Noroeste 24 Noroeste 0 -- -- 36
2019-05-30 15:00:00 24.2 13 Noroeste 28 Noroeste 0 -- -- 46
2019-05-30 14:00:00 22.7 16 Noroeste 28 Norte 0 -- -- 54
2019-05-30 13:00:00 22.9 13 Noroeste 30 Oeste 0 -- -- 51
2019-05-30 12:00:00 22.3 14 Noroeste 28 Oeste 0 -- -- 50
2019-05-30 11:00:00 22.4 11 Oeste 30 Oeste 0 -- -- 50
2019-05-30 10:00:00 21.4 15 Oeste 25 Oeste 0 -- -- 53
2019-05-30 09:00:00 21.1 11 Oeste 28 Oeste 0 -- -- 56
2019-05-30 08:00:00 19.8 6 Oeste 17 Oeste 0 -- -- 59
2019-05-30 07:00:00 12.9 0 Calma 11 Oeste 0 -- -- 83
2019-05-30 06:00:00 13.6 3 Noroeste 10 Oeste 0 -- -- 78
2019-05-30 05:00:00 13 0 Calma 14 Sudoeste 0 -- -- 85
2019-05-30 04:00:00 14 5 Sudoeste 12 Sudoeste 0 -- -- 84
2019-05-30 03:00:00 12.4 0 Calma 4 Nordeste 0 -- -- 89
2019-05-30 02:00:00 12.7 0 Calma 7 Oeste 0 -- -- 90
2019-05-30 01:00:00 13.1 2 Norte 6 Oeste 0 -- -- 89
2019-05-30 00:00:00 13.7 0 Calma 5 Oeste 0 -- -- 87
2019-05-29 23:00:00 14.3 0 Calma 4 Oeste 0 -- -- 84
2019-05-29 22:00:00 15.2 0 Calma 4 Este 0 -- -- 80
2019-05-29 21:00:00 17.2 2 Este 9 Este 0 -- -- 70
2019-05-29 20:00:00 18.9 4 Sudeste 17 Sudeste 0 -- -- 63
2019-05-29 19:00:00 19 8 Este 22 Sudeste 0 -- -- 63
2019-05-29 18:00:00 20.1 6 Norte 18 Oeste 0 -- -- 57
2019-05-29 17:00:00 21.5 8 Noroeste 23 Noroeste 0 -- -- 55
2019-05-29 16:00:00 21.9 10 Nordeste 22 Nordeste 0 -- -- 49
2019-05-29 15:00:00 22.4 7 Nordeste 21 Este 0 -- -- 46
2019-05-29 14:00:00 22.1 8 Este 19 Sudeste 0 -- -- 45
2019-05-29 13:00:00 20.9 8 Nordeste 19 Nordeste 0 -- -- 48
2019-05-29 12:00:00 21.3 8 Sudeste 19 Este 0 -- -- 49
2019-05-29 11:00:00 18.6 6 Sudeste 15 Sudeste 0 -- -- 61
2019-05-29 10:00:00 -- -- -- -- -- -- -- -- --
2019-05-29 09:00:00 20.4 5 Sudeste 11 Sur 0 -- -- 64
2019-05-29 08:00:00 18.7 2 Sur 6 Sur 0 -- -- 71
2019-05-29 07:00:00 15 0 Calma 5 Sudeste 0 -- -- 89
2019-05-29 06:00:00 15 0 Calma 10 Nordeste 0 -- -- 86
2019-05-29 05:00:00 16.2 4 Nordeste 15 Este 0 -- -- 79
2019-05-29 04:00:00 16.8 0 Calma 9 Sudeste 0 -- -- 69
2019-05-29 03:00:00 15.3 0 Calma 6 Nordeste 0 -- -- 79
2019-05-29 02:00:00 14.5 0 Calma 4 Sudeste 0 -- -- 83
2019-05-29 01:00:00 15.2 0 Calma 5 Oeste 0 -- -- 82
2019-05-29 00:00:00 16.1 4 Sudoeste 10 Sudoeste 0 -- -- 74
2019-05-28 23:00:00 15.2 0 Calma 5 Oeste 0 -- -- 83
2019-05-28 22:00:00 16.7 0 Calma 13 Este 0 -- -- 77
2019-05-28 21:00:00 17.7 5 Este 19 Sudeste 0 -- -- 71
2019-05-28 20:00:00 17.8 7 Nordeste 21 Este 0 -- -- 70
2019-05-28 19:00:00 18.9 9 Este 22 Norte 0 -- -- 65
2019-05-28 18:00:00 19.6 11 Norte 22 Norte 0 -- -- 62
2019-05-28 17:00:00 20.8 8 Noroeste 18 Norte 0 -- -- 58
2019-05-28 16:00:00 20.7 8 Norte 27 Noroeste 0 -- -- 60
2019-05-28 15:00:00 23.1 11 Noroeste 21 Noroeste 0 -- -- 53
2019-05-28 14:00:00 23.2 10 Noroeste -- -- -- -- -- 55
2019-05-28 13:00:00 -- -- -- -- -- -- -- -- --
2019-05-28 12:00:00 -- -- -- -- -- -- -- -- --
2019-05-28 11:00:00 22.2 7 Noroeste 14 Noroeste 0 -- -- 58
2019-05-28 10:00:00 22 5 Nordeste 8 Norte 0 -- -- 57
2019-05-28 09:00:00 21.4 2 Nordeste 7 Sudeste 0 -- -- 62
2019-05-28 08:00:00 17.3 2 Nordeste 4 Nordeste 0 -- -- 82
2019-05-28 07:00:00 13.4 0 Calma 3 Norte 0 -- -- 96
2019-05-28 06:00:00 12.9 2 Norte 3 Norte 0 -- -- 96
2019-05-28 05:00:00 13.1 0 Calma 5 Este 0 -- -- 96
2019-05-28 04:00:00 13.4 0 Calma 3 Norte 0 -- -- 95
2019-05-28 03:00:00 14.1 0 Calma 4 Sudeste 0 -- -- 94
2019-05-28 02:00:00 14.5 0 Calma 4 Norte 0 -- -- 93
2019-05-28 01:00:00 14.9 0 Calma 3 Sudoeste 0 -- -- 91
2019-05-28 00:00:00 15.8 0 Calma 4 Nordeste 0 -- -- 90
2019-05-27 23:00:00 16.2 0 Calma 4 Oeste 0 -- -- 89
2019-05-27 22:00:00 16.9 0 Calma 6 Sudeste 0 -- -- 85
2019-05-27 21:00:00 18.3 4 Sudeste 11 Este 0 -- -- 80
2019-05-27 20:00:00 19.9 5 Este 13 Sudeste 0 -- -- 72
2019-05-27 19:00:00 20.7 6 Este 17 Este 0 -- -- 70
2019-05-27 18:00:00 22.7 8 Nordeste 18 Nordeste 0 -- -- 59
2019-05-27 17:00:00 23.5 8 Este 19 Nordeste 0 -- -- 58
2019-05-27 16:00:00 22.9 10 Sudeste 19 Sudeste 0 -- -- 53
2019-05-27 15:00:00 25 5 Este 14 Nordeste 0 -- -- 41
2019-05-27 14:00:00 25.3 7 Este 21 Sudeste 0 -- -- 41
2019-05-27 13:00:00 25.5 5 Sudeste 12 Noroeste 0 -- -- 40
2019-05-27 12:00:00 23.9 7 Noroeste 21 Noroeste 0 -- -- 40
2019-05-27 11:00:00 23.9 9 Noroeste 22 Oeste 0 -- -- 40
2019-05-27 10:00:00 24.3 11 Noroeste 22 Oeste 0 -- -- 38
2019-05-27 09:00:00 22.7 8 Oeste 22 Noroeste 0 -- -- 44
2019-05-27 08:00:00 21.2 13 Noroeste 36 Noroeste 0 -- -- 48
2019-05-27 07:00:00 19 12 Oeste 29 Noroeste 0 -- -- 51
2019-05-27 06:00:00 19.1 15 Oeste 35 Noroeste 0 -- -- 49
2019-05-27 05:00:00 18.7 12 Oeste 33 Oeste 0 -- -- 50
2019-05-27 04:00:00 18.8 17 Oeste 39 Oeste 0 -- -- 47
2019-05-27 03:00:00 19.1 19 Oeste 36 Oeste 0 -- -- 46
2019-05-27 02:00:00 18.6 10 Noroeste 25 Oeste 0 -- -- 58
2019-05-27 01:00:00 17.2 4 Noroeste 12 Oeste 0 -- -- 58
2019-05-27 00:00:00 17.2 4 Noroeste 14 Sudoeste 0 -- -- 59
2019-05-26 23:00:00 16.4 4 Noroeste 13 Sudoeste 0 -- -- 66
2019-05-26 22:00:00 18 5 Oeste 14 Sudoeste 0 -- -- 59
2019-05-26 21:00:00 19.2 4 Noroeste 12 Oeste 0 -- -- 54
2019-05-26 20:00:00 21 6 Oeste 15 Noroeste 0 -- -- 46
2019-05-26 19:00:00 20.9 10 Oeste 21 Noroeste 0 -- -- 47
2019-05-26 18:00:00 21.6 12 Noroeste 32 Oeste 0 -- -- 45
2019-05-26 17:00:00 21.8 12 Noroeste 33 Norte 0 -- -- 47
2019-05-26 16:00:00 22.9 10 Noroeste 33 Noroeste 0 -- -- 43
2019-05-26 15:00:00 22.3 8 Noroeste 24 Noroeste 0 -- -- 47
2019-05-26 14:00:00 22.1 10 Noroeste 26 Oeste 0 -- -- 52
2019-05-26 13:00:00 23 14 Noroeste 35 Oeste 0 -- -- 48
2019-05-26 12:00:00 21.8 10 Norte 33 Noroeste 0 -- -- 51
2019-05-26 11:00:00 22.3 11 Noroeste 27 Noroeste 0 -- -- 48
2019-05-26 10:00:00 22.2 9 Noroeste 27 Noroeste 0 -- -- 55
2019-05-26 09:00:00 20.9 12 Noroeste 32 Oeste 0 -- -- 58
2019-05-26 08:00:00 19.9 14 Oeste 28 Noroeste 0 -- -- 62
2019-05-26 07:00:00 18.1 10 Oeste 31 Oeste 0 -- -- 67
2019-05-26 06:00:00 18.2 17 Noroeste 41 Oeste 0 -- -- 66
2019-05-26 05:00:00 18.4 14 Oeste 36 Oeste 0 -- -- 61
2019-05-26 04:00:00 17.7 11 Oeste 29 Sudoeste 0 -- -- 64
2019-05-26 03:00:00 17.5 5 Oeste 17 Noroeste 0 -- -- 71
2019-05-26 02:00:00 18 4 Oeste 15 Noroeste 0 -- -- 65
2019-05-26 01:00:00 18.1 8 Oeste 18 Oeste 0 -- -- 66
2019-05-26 00:00:00 16.7 2 Noroeste 11 Noroeste 0 -- -- 81
2019-05-25 23:00:00 17.1 5 Oeste 9 Oeste 0 -- -- 78
2019-05-25 22:00:00 17.1 3 Sudoeste 19 Oeste 0 -- -- 78
2019-05-25 21:00:00 17.3 4 Noroeste 17 Noroeste 0 -- -- 77
2019-05-25 20:00:00 17.8 4 Noroeste 13 Nordeste 0 -- -- 75
2019-05-25 19:00:00 18.2 4 Noroeste 18 Nordeste 0 -- -- 74
2019-05-25 18:00:00 18.8 3 Norte 22 Noroeste 0 -- -- 71
2019-05-25 17:00:00 18.2 4 Noroeste 16 Oeste 0 -- -- 79
2019-05-25 16:00:00 16.9 5 Sudoeste 13 Norte 0 -- -- 91
2019-05-25 15:00:00 16.2 0 Calma 5 Norte 0 -- -- 92
2019-05-25 14:00:00 15.9 2 Norte 16 Norte 0.4 -- -- 93
2019-05-25 13:00:00 15.7 3 Nordeste 16 Nordeste 1 -- -- 94
2019-05-25 12:00:00 15.6 2 Sudoeste 7 Sudoeste 7.4 -- -- 96
2019-05-25 11:00:00 15.3 2 Sudoeste 11 Sudoeste 8.4 -- -- 96
2019-05-25 10:00:00 14.6 6 Sudoeste 10 Oeste 1 -- -- 97
2019-05-25 09:00:00 14.6 0 Calma 4 Sudeste 1.2 -- -- 97
2019-05-25 08:00:00 14.3 2 Sudoeste 6 Norte 1.4 -- -- 97
2019-05-25 07:00:00 14.2 0 Calma 6 Nordeste 1.6 -- -- 97
2019-05-25 06:00:00 14.5 0 Calma 8 Norte 2.2 -- -- 97
2019-05-25 05:00:00 14.6 3 Nordeste 6 Norte 3.8 -- -- 96
2019-05-25 04:00:00 14.7 0 Calma 5 Norte 4.2 -- -- 95
2019-05-25 03:00:00 15.2 2 Norte 5 Oeste 0.6 -- -- 94
2019-05-25 02:00:00 15 4 Oeste 8 Sudoeste 0 -- -- 94
2019-05-25 01:00:00 15 0 Calma 6 Sudoeste 0 -- -- 95
2019-05-25 00:00:00 14.7 2 Oeste 5 Oeste 0 -- -- 94
2019-05-24 23:00:00 14.5 0 Calma 5 Norte 0 -- -- 95
2019-05-24 22:00:00 14.6 4 Norte 6 Norte 0 -- -- 94
2019-05-24 21:00:00 14.8 4 Oeste 6 Sudoeste 0 -- -- 93
2019-05-24 20:00:00 14.6 0 Calma 5 Norte 0.2 -- -- 91
2019-05-24 19:00:00 15.3 0 Calma 5 Sudoeste 1 -- -- 88
2019-05-24 18:00:00 16.9 0 Calma 8 Norte 0.4 -- -- 84
2019-05-24 17:00:00 17.5 0 Calma 17 Oeste 0.2 -- -- 76
2019-05-24 16:00:00 17.4 11 Oeste 18 Oeste 0.2 -- -- 73
2019-05-24 15:00:00 17.6 7 Oeste 15 Oeste 0.2 -- -- 71
2019-05-24 14:00:00 18.1 2 Norte 6 Oeste 0.2 -- -- 83
2019-05-24 13:00:00 18.1 3 Oeste 12 Sudoeste 0.8 -- -- 81
2019-05-24 12:00:00 20.2 8 Oeste 18 Oeste 0 -- -- 52
2019-05-24 11:00:00 20.4 5 Noroeste 14 Noroeste 0 -- -- 50
2019-05-24 10:00:00 20 3 Oeste 9 Noroeste 0 -- -- 56
2019-05-24 09:00:00 19.8 2 Oeste 4 Sur 0 -- -- 48
2019-05-24 08:00:00 16.9 0 Calma 4 Sudeste 0 -- -- 52
2019-05-24 07:00:00 14.8 2 Noroeste 4 Norte 0 -- -- 61
2019-05-24 06:00:00 14.4 2 Nordeste 4 Nordeste 0 -- -- 60
2019-05-24 05:00:00 13.4 0 Calma 4 Noroeste 0 -- -- 64
2019-05-24 04:00:00 14.6 0 Calma 4 Nordeste 0 -- -- 61
2019-05-24 03:00:00 14 2 Norte 4 Norte 0 -- -- 64
2019-05-24 02:00:00 14.5 3 Nordeste 4 Nordeste 0 -- -- 63
2019-05-24 01:00:00 14.9 0 Calma 4 Norte 0 -- -- 63
2019-05-24 00:00:00 16.1 0 Calma 5 Nordeste 0 -- -- 58
2019-05-23 23:00:00 17.1 0 Calma 6 Noroeste 0 -- -- 54
2019-05-23 22:00:00 18.3 3 Nordeste 8 Norte 0 -- -- 52
2019-05-23 21:00:00 21 4 Norte 9 Este 0 -- -- 42
2019-05-23 20:00:00 23.6 5 Oeste 21 Sur 0 -- -- 32
2019-05-23 19:00:00 25.4 14 Sur 25 Sur 0 -- -- 22
2019-05-23 18:00:00 25.5 12 Norte 31 Nordeste 0 -- -- 34
2019-05-23 17:00:00 26.8 13 Norte 20 Norte 0 -- -- 32
2019-05-23 16:00:00 27.2 13 Nordeste 22 Nordeste 0 -- -- 29
2019-05-23 15:00:00 26.7 13 Norte 26 Nordeste 0 -- -- 30
2019-05-23 14:00:00 26.5 12 Nordeste 22 Norte 0 -- -- 32
2019-05-23 13:00:00 26 9 Este 19 Este 0 -- -- 36
2019-05-23 12:00:00 26.6 5 Sudeste 16 Sudeste 0 -- -- 32
2019-05-23 11:00:00 25.7 6 Nordeste 11 Nordeste 0 -- -- 32
2019-05-23 10:00:00 23.2 4 Norte 8 Nordeste 0 -- -- 40
2019-05-23 09:00:00 21.9 0 Calma 4 Nordeste 0 -- -- 50
2019-05-23 08:00:00 17.2 0 Calma 8 Norte 0 -- -- 66
2019-05-23 07:00:00 10.6 0 Calma 3 Norte 0 -- -- 89
2019-05-23 06:00:00 10.5 0 Calma 3 Norte 0 -- -- 89
2019-05-23 05:00:00 10.9 0 Calma 2 Nordeste 0 -- -- 88
2019-05-23 04:00:00 11.4 0 Calma 4 Nordeste 0 -- -- 87
2019-05-23 03:00:00 12 0 Calma 3 Norte 0 -- -- 85
2019-05-23 02:00:00 12.5 0 Calma 3 Sudoeste 0 -- -- 84
2019-05-23 01:00:00 13.2 0 Calma 3 Norte 0 -- -- 82
2019-05-23 00:00:00 14.2 2 Norte 4 Norte 0 -- -- 79
2019-05-22 23:00:00 15.3 0 Calma 3 Nordeste 0 -- -- 76
2019-05-22 22:00:00 16.6 0 Calma 5 Oeste 0 -- -- 71
2019-05-22 21:00:00 18.6 0 Calma 8 Sudeste 0 -- -- 65
2019-05-22 20:00:00 20.6 4 Este 14 Sudeste 0 -- -- 52
2019-05-22 19:00:00 22.1 8 Este 15 Este 0 -- -- 43
2019-05-22 18:00:00 23.1 7 Este 19 Nordeste 0 -- -- 38
2019-05-22 17:00:00 23.7 10 Este 19 Sudeste 0 -- -- 42
2019-05-22 16:00:00 24.5 8 Este 19 Este 0 -- -- 48
2019-05-22 15:00:00 25.3 10 Nordeste 20 Nordeste 0 -- -- 41
2019-05-22 14:00:00 25.3 9 Nordeste 22 Noroeste 0 -- -- 41
2019-05-22 13:00:00 24.3 7 Este 19 Este 0 -- -- 42
2019-05-22 12:00:00 23.2 6 Nordeste 15 Norte 0 -- -- 42
2019-05-22 11:00:00 23.8 3 Sudeste 10 Sur 0 -- -- 42
2019-05-22 10:00:00 22 2 Sur 6 Nordeste 0 -- -- 46
2019-05-22 09:00:00 20.6 4 Nordeste 6 Norte 0 -- -- 50
2019-05-22 08:00:00 16.3 3 Nordeste 4 Norte 0 -- -- 65
2019-05-22 07:00:00 11.7 3 Norte 4 Norte 0 -- -- 81
2019-05-22 06:00:00 11.1 0 Calma 4 Norte 0 -- -- 82
2019-05-22 05:00:00 11.3 0 Calma 4 Norte 0 -- -- 80
2019-05-22 04:00:00 11.6 0 Calma 4 Norte 0 -- -- 79
2019-05-22 03:00:00 12 0 Calma 4 Norte 0 -- -- 81
2019-05-22 02:00:00 12.6 0 Calma 4 Norte 0 -- -- 82
2019-05-22 01:00:00 13.2 2 Norte 4 Norte 0 -- -- 83
2019-05-22 00:00:00 14.4 0 Calma 5 Norte 0 -- -- 77